Arlon, Belgium
Current Conditions -  °F | °C
As of 8:50 AM on Saturday 25 Oct 2014 (Local Time) from ELLX Reporting Station
Broken Clouds Broken Clouds  
Wind Chill: 48°   Ceiling: 600
Heat Index: 48°   Visibility: 3mi
Dew Point: 46°   Wind: 3mph
Humidity: 93%   Direction: NA
Pressure: 30.09"   Gusts: NA
Location:  49.68°N, 5.82°E
Report Text: ELLX 250650Z VRB03KT 5000 BKN006 09/08 Q1019 NOSIG
Loading
Personal Weather Stations






























Interactive Weather Map
Tropical Storm Tracking
New forecast layout! Learn more

10-Day Weather Forecast

Advertisements
Track Severe Weather on mobile